2MARL EGJB-EGJB

Flight info

Callsign 2MARL
Flight time 0h 40m
Altitude 3500
Route BASIK
Aircraft SR22/L-SDGRY/S

Departure

Time 2026-04-25 08:41
Airport Guernsey Airport (EGJB)

Arrival

Time 2026-04-25 09:21
Airport Guernsey Airport (EGJB)
Time Latitude Longitude Altitude Speed Heading
2026-04-25 08:28 49.43193 -2.60006 339 ft 0 kts 77°
2026-04-25 08:38 49.43203 -2.59932 338 ft 14 kts 35°
2026-04-25 08:38 49.43336 -2.59952 338 ft 22 kts 295°
2026-04-25 08:38 49.43334 -2.60233 334 ft 30 kts 266°
2026-04-25 08:38 49.43328 -2.60434 329 ft 10 kts 269°
2026-04-25 08:39 49.43324 -2.60545 324 ft 14 kts 268°
2026-04-25 08:39 49.43371 -2.60652 324 ft 6 kts 357°
2026-04-25 08:39 49.43376 -2.60652 324 ft 0 kts 352°
2026-04-25 08:40 49.43469 -2.60639 323 ft 25 kts 45°
2026-04-25 08:40 49.43500 -2.60047 336 ft 83 kts 87°
2026-04-25 08:40 49.43519 -2.59079 535 ft 93 kts 91°
2026-04-25 08:40 49.43524 -2.58109 893 ft 91 kts 88°
2026-04-25 08:41 49.43265 -2.57161 959 ft 108 kts 140°
2026-04-25 08:41 49.42527 -2.56997 980 ft 110 kts 182°
2026-04-25 08:41 49.41747 -2.57064 933 ft 118 kts 177°
2026-04-25 08:41 49.41031 -2.57558 996 ft 126 kts 239°
2026-04-25 08:42 49.40888 -2.58874 1026 ft 131 kts 263°
2026-04-25 08:42 49.40799 -2.60304 1012 ft 135 kts 263°
2026-04-25 08:42 49.40725 -2.61772 954 ft 143 kts 266°
2026-04-25 08:42 49.40740 -2.63286 984 ft 135 kts 285°
2026-04-25 08:43 49.41360 -2.64168 958 ft 121 kts 349°
2026-04-25 08:43 49.42156 -2.64282 873 ft 104 kts
2026-04-25 08:43 49.42808 -2.64317 849 ft 86 kts
2026-04-25 08:43 49.43376 -2.64125 683 ft 76 kts 51°
2026-04-25 08:44 49.43427 -2.63287 497 ft 84 kts 88°
2026-04-25 08:44 49.43442 -2.62508 495 ft 68 kts 90°
2026-04-25 08:44 49.43458 -2.61764 413 ft 72 kts 91°
2026-04-25 08:44 49.43476 -2.61035 316 ft 63 kts 90°
2026-04-25 08:45 49.43496 -2.60353 344 ft 83 kts 88°
2026-04-25 08:45 49.43530 -2.59413 684 ft 90 kts 88°
2026-04-25 08:45 49.43590 -2.58440 1100 ft 96 kts 83°
2026-04-25 08:45 49.43393 -2.57374 1103 ft 120 kts 131°
2026-04-25 08:46 49.42593 -2.56898 1068 ft 130 kts 173°
2026-04-25 08:46 49.41693 -2.56863 1043 ft 129 kts 175°
2026-04-25 08:46 49.41029 -2.57653 1037 ft 135 kts 256°
2026-04-25 08:46 49.40952 -2.59103 1017 ft 136 kts 262°
2026-04-25 08:47 49.40835 -2.60531 987 ft 136 kts 261°
2026-04-25 08:47 49.40730 -2.61978 1003 ft 136 kts 263°
2026-04-25 08:47 49.40728 -2.63416 975 ft 134 kts 287°
2026-04-25 08:47 49.41389 -2.64174 918 ft 117 kts 357°
2026-04-25 08:48 49.42142 -2.64204 761 ft 104 kts
2026-04-25 08:48 49.42817 -2.64211 786 ft 97 kts
2026-04-25 08:48 49.43396 -2.63835 704 ft 94 kts 71°
2026-04-25 08:48 49.43443 -2.62816 537 ft 96 kts 89°
2026-04-25 08:49 49.43460 -2.61922 419 ft 75 kts 90°
2026-04-25 08:49 49.43475 -2.61138 330 ft 69 kts 90°
2026-04-25 08:49 49.43489 -2.60473 327 ft 74 kts 89°
2026-04-25 08:49 49.43526 -2.59526 659 ft 78 kts 87°
2026-04-25 08:50 49.43598 -2.58659 1102 ft 85 kts 88°
2026-04-25 08:50 49.43597 -2.57731 1534 ft 92 kts 88°
2026-04-25 08:50 49.43608 -2.56713 1900 ft 101 kts 90°
2026-04-25 08:50 49.43543 -2.55556 2168 ft 117 kts 116°
2026-04-25 08:51 49.42847 -2.54921 2447 ft 128 kts 177°
2026-04-25 08:51 49.41949 -2.54952 2728 ft 133 kts 179°
2026-04-25 08:51 49.41015 -2.54951 3007 ft 136 kts 179°
2026-04-25 08:51 49.40006 -2.54946 3047 ft 153 kts 179°
2026-04-25 08:52 49.38909 -2.55103 3044 ft 165 kts 200°
2026-04-25 08:52 49.37988 -2.56187 3051 ft 171 kts 224°
2026-04-25 08:52 49.37122 -2.57465 3048 ft 174 kts 223°
2026-04-25 08:52 49.36260 -2.58787 3049 ft 176 kts 225°
2026-04-25 08:53 49.35401 -2.60131 3046 ft 177 kts 225°
2026-04-25 08:53 49.34437 -2.61254 3048 ft 177 kts 210°
2026-04-25 08:53 49.33375 -2.62210 3045 ft 177 kts 209°
2026-04-25 08:53 49.32312 -2.63166 3042 ft 177 kts 210°
2026-04-25 08:54 49.31248 -2.64127 3042 ft 177 kts 210°
2026-04-25 08:54 49.30189 -2.65088 3041 ft 177 kts 210°
2026-04-25 08:54 49.29128 -2.66053 3042 ft 177 kts 210°
2026-04-25 08:54 49.28067 -2.67014 3040 ft 177 kts 210°
2026-04-25 08:55 49.27004 -2.67975 3040 ft 177 kts 210°
2026-04-25 08:55 49.25944 -2.68933 3036 ft 177 kts 210°
2026-04-25 08:55 49.24895 -2.69880 3037 ft 177 kts 210°
2026-04-25 08:55 49.23832 -2.70838 3037 ft 177 kts 210°
2026-04-25 08:56 49.22770 -2.71794 3036 ft 177 kts 210°
2026-04-25 08:56 49.21707 -2.72750 3033 ft 177 kts 210°
2026-04-25 08:56 49.20646 -2.73707 3032 ft 177 kts 210°
2026-04-25 08:56 49.19584 -2.74660 3030 ft 177 kts 210°
2026-04-25 08:57 49.18523 -2.75617 3029 ft 177 kts 210°
2026-04-25 08:57 49.17461 -2.76573 3027 ft 177 kts 210°
2026-04-25 08:57 49.16399 -2.77527 3028 ft 177 kts 210°
2026-04-25 08:57 49.15352 -2.78467 3025 ft 177 kts 210°
2026-04-25 08:58 49.14289 -2.79420 3027 ft 177 kts 210°
2026-04-25 08:58 49.13226 -2.80374 3025 ft 177 kts 210°
2026-04-25 08:58 49.12162 -2.81328 3023 ft 177 kts 210°
2026-04-25 08:58 49.11099 -2.82280 3024 ft 177 kts 210°
2026-04-25 08:59 49.10037 -2.83232 3022 ft 177 kts 210°
2026-04-25 08:59 49.08974 -2.84183 3022 ft 177 kts 210°
2026-04-25 08:59 49.07912 -2.85135 3021 ft 177 kts 210°
2026-04-25 08:59 49.06848 -2.86086 3020 ft 177 kts 210°
2026-04-25 09:00 49.05798 -2.87023 3018 ft 177 kts 210°
2026-04-25 09:00 49.04736 -2.87971 3016 ft 177 kts 210°
2026-04-25 09:00 49.03674 -2.88919 3020 ft 177 kts 210°
2026-04-25 09:00 49.02611 -2.89868 3018 ft 177 kts 210°
2026-04-25 09:01 49.01547 -2.90816 3016 ft 177 kts 210°
2026-04-25 09:01 49.00485 -2.91764 3018 ft 177 kts 210°
2026-04-25 09:01 48.99423 -2.92710 3014 ft 177 kts 210°
2026-04-25 09:01 48.98360 -2.93657 3014 ft 177 kts 210°
2026-04-25 09:02 48.97311 -2.94591 3016 ft 177 kts 210°
2026-04-25 09:02 48.96248 -2.95536 3015 ft 177 kts 210°
2026-04-25 09:02 48.95183 -2.96482 3015 ft 177 kts 210°
2026-04-25 09:02 48.94118 -2.97427 3015 ft 177 kts 210°
2026-04-25 09:03 48.93053 -2.98371 3010 ft 177 kts 210°
2026-04-25 09:03 48.91987 -2.99318 3011 ft 177 kts 210°
2026-04-25 09:03 48.90963 -3.00349 2999 ft 178 kts 225°
2026-04-25 09:03 48.90484 -3.02035 2997 ft 178 kts 266°
2026-04-25 09:04 48.90869 -3.03782 2995 ft 177 kts 309°
2026-04-25 09:04 48.91895 -3.04630 3002 ft 173 kts 352°
2026-04-25 09:04 48.93091 -3.04665 3006 ft 175 kts 360°
2026-04-25 09:04 48.94311 -3.04667 3012 ft 176 kts 360°
2026-04-25 09:05 48.95542 -3.04641 3015 ft 177 kts
2026-04-25 09:05 48.96699 -3.04002 3009 ft 178 kts 25°
2026-04-25 09:05 48.97821 -3.03203 3014 ft 178 kts 25°
2026-04-25 09:05 48.98924 -3.02422 3017 ft 178 kts 25°
2026-04-25 09:06 49.00048 -3.01625 3019 ft 178 kts 25°
2026-04-25 09:06 49.01174 -3.00829 3016 ft 178 kts 25°
2026-04-25 09:06 49.02283 -3.00043 3016 ft 178 kts 25°
2026-04-25 09:06 49.03410 -2.99246 3016 ft 178 kts 25°
2026-04-25 09:07 49.04536 -2.98448 3016 ft 179 kts 25°
2026-04-25 09:07 49.05663 -2.97651 3014 ft 179 kts 25°
2026-04-25 09:07 49.06789 -2.96853 3015 ft 179 kts 25°
2026-04-25 09:07 49.07816 -2.95821 3001 ft 179 kts 50°
2026-04-25 09:08 49.08215 -2.94070 3005 ft 177 kts 86°
2026-04-25 09:08 49.08446 -2.92241 3005 ft 178 kts 61°
2026-04-25 09:08 49.09213 -2.90764 3016 ft 178 kts 48°
2026-04-25 09:08 49.10222 -2.89735 3017 ft 178 kts 25°
2026-04-25 09:09 49.11349 -2.88944 3017 ft 178 kts 25°
2026-04-25 09:09 49.12475 -2.88146 3019 ft 179 kts 25°
2026-04-25 09:09 49.13602 -2.87347 3019 ft 179 kts 25°
2026-04-25 09:09 49.14724 -2.86553 3022 ft 179 kts 25°
2026-04-25 09:10 49.15858 -2.85748 3022 ft 179 kts 25°
2026-04-25 09:10 49.16986 -2.84948 3025 ft 179 kts 25°
2026-04-25 09:10 49.18116 -2.84148 3022 ft 179 kts 25°
2026-04-25 09:10 49.19245 -2.83347 3025 ft 179 kts 25°
2026-04-25 09:11 49.21488 -2.81753 3028 ft 179 kts 25°
2026-04-25 09:11 49.22616 -2.80952 3030 ft 179 kts 25°
2026-04-25 09:11 49.23746 -2.80150 3029 ft 179 kts 25°
2026-04-25 09:12 49.24877 -2.79350 3032 ft 179 kts 25°
2026-04-25 09:12 49.26008 -2.78550 3031 ft 179 kts 25°
2026-04-25 09:12 49.27139 -2.77747 3033 ft 179 kts 25°
2026-04-25 09:12 49.28271 -2.76945 3033 ft 179 kts 25°
2026-04-25 09:13 49.29385 -2.76152 3035 ft 179 kts 25°
2026-04-25 09:13 49.30518 -2.75350 3037 ft 179 kts 25°
2026-04-25 09:13 49.31650 -2.74547 3036 ft 179 kts 25°
2026-04-25 09:13 49.32781 -2.73744 3037 ft 179 kts 25°
2026-04-25 09:14 49.33911 -2.72942 3037 ft 179 kts 25°
2026-04-25 09:14 49.35041 -2.72138 3038 ft 179 kts 25°
2026-04-25 09:14 49.36170 -2.71335 3037 ft 179 kts 25°
2026-04-25 09:14 49.37300 -2.70531 3037 ft 179 kts 25°
2026-04-25 09:15 49.38413 -2.69738 3040 ft 179 kts 25°
2026-04-25 09:15 49.39542 -2.68934 3038 ft 179 kts 25°
2026-04-25 09:15 49.40672 -2.68130 3038 ft 179 kts 25°
2026-04-25 09:15 49.41767 -2.67341 3034 ft 163 kts 26°
2026-04-25 09:16 49.42728 -2.66640 3025 ft 144 kts 26°
2026-04-25 09:16 49.43417 -2.65766 2182 ft 149 kts 89°
2026-04-25 09:16 49.43401 -2.63891 1093 ft 178 kts 65°
2026-04-25 09:16 49.43496 -2.61937 413 ft 177 kts 93°
2026-04-25 09:17 49.43567 -2.58593 1253 ft 80 kts 85°
2026-04-25 09:17 49.43636 -2.57584 1580 ft 116 kts 95°
2026-04-25 09:17 49.43035 -2.56793 1689 ft 139 kts 178°
2026-04-25 09:18 49.42031 -2.56940 1798 ft 150 kts 181°
2026-04-25 09:18 49.41491 -2.58195 1758 ft 167 kts 268°
2026-04-25 09:18 49.41487 -2.59965 1600 ft 161 kts 268°
2026-04-25 09:18 49.41436 -2.61680 1114 ft 161 kts 265°
2026-04-25 09:19 49.41819 -2.63024 1117 ft 134 kts 334°
2026-04-25 09:19 49.42715 -2.63345 807 ft 134 kts 357°
2026-04-25 09:19 49.43520 -2.63121 832 ft 112 kts 84°
2026-04-25 09:19 49.42965 -2.62660 878 ft 141 kts 224°
2026-04-25 09:20 49.43153 -2.63864 1179 ft 142 kts 359°
2026-04-25 09:20 49.43522 -2.62796 886 ft 134 kts 104°
2026-04-25 09:20 49.43469 -2.61569 387 ft 97 kts 92°
2026-04-25 09:20 49.43483 -2.60693 322 ft 67 kts 88°
2026-04-25 09:21 49.43500 -2.60087 335 ft 45 kts 89°
2026-04-25 09:21 49.43425 -2.59863 339 ft 24 kts 176°
2026-04-25 09:21 49.43315 -2.59931 338 ft 19 kts 186°
2026-04-25 09:21 49.43198 -2.59953 339 ft 16 kts 256°
2026-04-25 09:22 49.43190 -2.59997 335 ft 1 kts 12°
2026-04-25 09:22 49.43192 -2.59993 339 ft 0 kts 68°